sensor_id;sensor_type;location;lat;lon;timestamp;temperature;humidity
21403;DHT22;10862;51.886;17.078;2024-01-27T00:01:05;5.70;99.20
21403;DHT22;10862;51.886;17.078;2024-01-27T00:03:31;5.60;99.90
21403;DHT22;10862;51.886;17.078;2024-01-27T00:05:56;5.70;99.90
21403;DHT22;10862;51.886;17.078;2024-01-27T00:08:22;5.60;99.90
21403;DHT22;10862;51.886;17.078;2024-01-27T00:10:48;5.70;1.00
21403;DHT22;10862;51.886;17.078;2024-01-27T00:13:13;5.70;1.00
21403;DHT22;10862;51.886;17.078;2024-01-27T00:15:39;5.60;1.00
21403;DHT22;10862;51.886;17.078;2024-01-27T00:18:04;5.60;1.00
21403;DHT22;10862;51.886;17.078;2024-01-27T00:20:30;5.70;1.00
21403;DHT22;10862;51.886;17.078;2024-01-27T00:22:56;5.70;1.00
21403;DHT22;10862;51.886;17.078;2024-01-27T00:25:21;5.70;1.00
21403;DHT22;10862;51.886;17.078;2024-01-27T00:27:47;5.60;99.90
21403;DHT22;10862;51.886;17.078;2024-01-27T00:30:13;5.50;1.00
21403;DHT22;10862;51.886;17.078;2024-01-27T00:32:39;5.60;99.90
21403;DHT22;10862;51.886;17.078;2024-01-27T00:35:05;5.50;99.90
21403;DHT22;10862;51.886;17.078;2024-01-27T00:37:30;5.60;99.90
21403;DHT22;10862;51.886;17.078;2024-01-27T00:39:56;5.60;99.90
21403;DHT22;10862;51.886;17.078;2024-01-27T00:42:21;5.60;99.90
21403;DHT22;10862;51.886;17.078;2024-01-27T00:44:50;5.50;99.90
21403;DHT22;10862;51.886;17.078;2024-01-27T00:47:15;5.60;99.90
21403;DHT22;10862;51.886;17.078;2024-01-27T00:49:41;5.60;99.90
21403;DHT22;10862;51.886;17.078;2024-01-27T00:52:07;5.50;99.90
21403;DHT22;10862;51.886;17.078;2024-01-27T00:54:32;5.40;99.90
21403;DHT22;10862;51.886;17.078;2024-01-27T00:56:58;5.40;99.90
21403;DHT22;10862;51.886;17.078;2024-01-27T00:59:23;5.40;99.90
21403;DHT22;10862;51.886;17.078;2024-01-27T01:01:49;5.50;99.90
21403;DHT22;10862;51.886;17.078;2024-01-27T01:04:15;5.40;99.90
21403;DHT22;10862;51.886;17.078;2024-01-27T01:06:40;5.50;99.90
21403;DHT22;10862;51.886;17.078;2024-01-27T01:09:06;5.50;77.40
21403;DHT22;10862;51.886;17.078;2024-01-27T01:11:32;5.40;99.90
21403;DHT22;10862;51.886;17.078;2024-01-27T01:13:58;5.40;99.90
21403;DHT22;10862;51.886;17.078;2024-01-27T01:16:23;5.40;99.90
21403;DHT22;10862;51.886;17.078;2024-01-27T01:18:49;5.40;99.90
21403;DHT22;10862;51.886;17.078;2024-01-27T01:21:14;5.40;99.90
21403;DHT22;10862;51.886;17.078;2024-01-27T01:24:25;5.30;99.90
21403;DHT22;10862;51.886;17.078;2024-01-27T01:26:51;5.20;99.90
21403;DHT22;10862;51.886;17.078;2024-01-27T01:29:17;5.30;99.90
21403;DHT22;10862;51.886;17.078;2024-01-27T01:31:43;5.30;99.90
21403;DHT22;10862;51.886;17.078;2024-01-27T01:34:08;5.30;99.90
21403;DHT22;10862;51.886;17.078;2024-01-27T01:36:34;5.30;99.90
21403;DHT22;10862;51.886;17.078;2024-01-27T01:38:59;5.30;99.90
21403;DHT22;10862;51.886;17.078;2024-01-27T01:41:25;5.30;99.90
21403;DHT22;10862;51.886;17.078;2024-01-27T01:43:51;5.30;99.90
21403;DHT22;10862;51.886;17.078;2024-01-27T01:46:17;5.30;99.90
21403;DHT22;10862;51.886;17.078;2024-01-27T01:48:42;5.30;99.90
21403;DHT22;10862;51.886;17.078;2024-01-27T01:51:08;5.30;1.00
21403;DHT22;10862;51.886;17.078;2024-01-27T01:53:34;5.30;1.00
21403;DHT22;10862;51.886;17.078;2024-01-27T01:56:01;5.30;1.00
21403;DHT22;10862;51.886;17.078;2024-01-27T01:58:28;5.30;1.00
21403;DHT22;10862;51.886;17.078;2024-01-27T02:01:00;5.30;1.00
21403;DHT22;10862;51.886;17.078;2024-01-27T02:03:25;5.30;1.00
21403;DHT22;10862;51.886;17.078;2024-01-27T02:05:51;5.20;1.00
21403;DHT22;10862;51.886;17.078;2024-01-27T02:08:17;5.30;1.00
21403;DHT22;10862;51.886;17.078;2024-01-27T02:10:43;5.20;1.00
21403;DHT22;10862;51.886;17.078;2024-01-27T02:13:22;5.20;1.00
21403;DHT22;10862;51.886;17.078;2024-01-27T02:15:49;5.30;1.00
21403;DHT22;10862;51.886;17.078;2024-01-27T02:18:17;5.30;1.00
21403;DHT22;10862;51.886;17.078;2024-01-27T02:20:43;5.30;1.00
21403;DHT22;10862;51.886;17.078;2024-01-27T02:23:09;5.30;1.00
21403;DHT22;10862;51.886;17.078;2024-01-27T02:25:35;5.30;1.00
21403;DHT22;10862;51.886;17.078;2024-01-27T02:28:01;5.40;99.90
21403;DHT22;10862;51.886;17.078;2024-01-27T02:30:30;5.30;99.90
21403;DHT22;10862;51.886;17.078;2024-01-27T02:32:56;5.30;99.90
21403;DHT22;10862;51.886;17.078;2024-01-27T02:35:23;5.40;99.90
21403;DHT22;10862;51.886;17.078;2024-01-27T02:37:48;5.30;98.70
21403;DHT22;10862;51.886;17.078;2024-01-27T02:40:14;5.40;33.60
21403;DHT22;10862;51.886;17.078;2024-01-27T02:42:40;5.30;88.00
21403;DHT22;10862;51.886;17.078;2024-01-27T02:45:10;5.30;57.20
21403;DHT22;10862;51.886;17.078;2024-01-27T02:47:37;5.30;29.00
21403;DHT22;10862;51.886;17.078;2024-01-27T02:50:03;5.30;95.20
21403;DHT22;10862;51.886;17.078;2024-01-27T02:52:29;5.30;5.60
21403;DHT22;10862;51.886;17.078;2024-01-27T02:54:55;5.30;7.20
21403;DHT22;10862;51.886;17.078;2024-01-27T02:57:21;5.20;1.00
21403;DHT22;10862;51.886;17.078;2024-01-27T02:59:47;5.20;1.00
21403;DHT22;10862;51.886;17.078;2024-01-27T03:02:12;5.30;1.00
21403;DHT22;10862;51.886;17.078;2024-01-27T03:04:38;5.30;1.00
21403;DHT22;10862;51.886;17.078;2024-01-27T03:07:04;5.20;6.10
21403;DHT22;10862;51.886;17.078;2024-01-27T03:09:30;5.30;4.20
21403;DHT22;10862;51.886;17.078;2024-01-27T03:11:56;5.10;1.00
21403;DHT22;10862;51.886;17.078;2024-01-27T03:14:21;5.20;1.00
21403;DHT22;10862;51.886;17.078;2024-01-27T03:16:48;5.30;1.00
21403;DHT22;10862;51.886;17.078;2024-01-27T03:19:14;5.20;7.00
21403;DHT22;10862;51.886;17.078;2024-01-27T03:21:39;5.30;1.00
21403;DHT22;10862;51.886;17.078;2024-01-27T03:24:05;5.20;82.00
21403;DHT22;10862;51.886;17.078;2024-01-27T03:26:31;5.10;41.70
21403;DHT22;10862;51.886;17.078;2024-01-27T03:28:56;5.30;99.90
21403;DHT22;10862;51.886;17.078;2024-01-27T03:31:23;5.10;99.90
21403;DHT22;10862;51.886;17.078;2024-01-27T03:33:49;5.20;59.20
21403;DHT22;10862;51.886;17.078;2024-01-27T03:36:15;5.20;13.70
21403;DHT22;10862;51.886;17.078;2024-01-27T03:38:41;5.20;1.00
21403;DHT22;10862;51.886;17.078;2024-01-27T03:41:06;5.20;80.70
21403;DHT22;10862;51.886;17.078;2024-01-27T03:43:33;5.10;99.90
21403;DHT22;10862;51.886;17.078;2024-01-27T03:45:59;5.10;85.50
21403;DHT22;10862;51.886;17.078;2024-01-27T03:48:25;5.20;99.90
21403;DHT22;10862;51.886;17.078;2024-01-27T03:50:51;5.10;30.90
21403;DHT22;10862;51.886;17.078;2024-01-27T03:53:17;5.20;1.00
21403;DHT22;10862;51.886;17.078;2024-01-27T03:55:42;5.10;86.70
21403;DHT22;10862;51.886;17.078;2024-01-27T03:58:08;5.20;52.20
21403;DHT22;10862;51.886;17.078;2024-01-27T04:00:33;5.20;92.30
21403;DHT22;10862;51.886;17.078;2024-01-27T04:02:59;5.20;4.40
21403;DHT22;10862;51.886;17.078;2024-01-27T04:05:27;5.20;1.00
21403;DHT22;10862;51.886;17.078;2024-01-27T04:07:53;5.20;1.00
21403;DHT22;10862;51.886;17.078;2024-01-27T04:10:18;5.20;1.00
21403;DHT22;10862;51.886;17.078;2024-01-27T04:12:44;5.10;1.00
21403;DHT22;10862;51.886;17.078;2024-01-27T04:15:10;5.10;1.00
21403;DHT22;10862;51.886;17.078;2024-01-27T04:17:37;5.00;1.00
21403;DHT22;10862;51.886;17.078;2024-01-27T04:20:03;5.20;1.00
21403;DHT22;10862;51.886;17.078;2024-01-27T04:22:30;5.10;1.00
21403;DHT22;10862;51.886;17.078;2024-01-27T04:24:56;5.20;1.00
21403;DHT22;10862;51.886;17.078;2024-01-27T04:27:21;5.10;1.00
21403;DHT22;10862;51.886;17.078;2024-01-27T04:29:47;5.10;1.00
21403;DHT22;10862;51.886;17.078;2024-01-27T04:32:13;5.10;1.00
21403;DHT22;10862;51.886;17.078;2024-01-27T04:34:38;5.10;1.00
21403;DHT22;10862;51.886;17.078;2024-01-27T04:37:05;5.10;1.00
21403;DHT22;10862;51.886;17.078;2024-01-27T04:39:30;5.10;1.00
21403;DHT22;10862;51.886;17.078;2024-01-27T04:41:56;5.20;1.00
21403;DHT22;10862;51.886;17.078;2024-01-27T04:44:21;5.00;6.40
21403;DHT22;10862;51.886;17.078;2024-01-27T04:46:47;5.00;1.00
21403;DHT22;10862;51.886;17.078;2024-01-27T04:49:14;5.10;1.00
21403;DHT22;10862;51.886;17.078;2024-01-27T04:51:39;4.90;1.00
21403;DHT22;10862;51.886;17.078;2024-01-27T04:54:05;5.00;1.00
21403;DHT22;10862;51.886;17.078;2024-01-27T04:56:30;5.00;1.00
21403;DHT22;10862;51.886;17.078;2024-01-27T04:58:56;4.90;1.00
21403;DHT22;10862;51.886;17.078;2024-01-27T05:01:21;5.00;1.00
21403;DHT22;10862;51.886;17.078;2024-01-27T05:03:47;4.90;1.00
21403;DHT22;10862;51.886;17.078;2024-01-27T05:06:12;5.00;6.70
21403;DHT22;10862;51.886;17.078;2024-01-27T05:08:38;4.90;11.30
21403;DHT22;10862;51.886;17.078;2024-01-27T05:11:04;4.90;1.00
21403;DHT22;10862;51.886;17.078;2024-01-27T05:13:29;4.80;22.90
21403;DHT22;10862;51.886;17.078;2024-01-27T05:15:55;4.90;1.00
21403;DHT22;10862;51.886;17.078;2024-01-27T05:18:21;4.90;1.00
21403;DHT22;10862;51.886;17.078;2024-01-27T05:20:46;4.90;1.00
21403;DHT22;10862;51.886;17.078;2024-01-27T05:23:12;4.80;1.00
21403;DHT22;10862;51.886;17.078;2024-01-27T05:25:37;4.90;7.30
21403;DHT22;10862;51.886;17.078;2024-01-27T05:28:04;4.80;98.80
21403;DHT22;10862;51.886;17.078;2024-01-27T05:30:29;4.80;76.80
21403;DHT22;10862;51.886;17.078;2024-01-27T05:32:55;4.90;99.90
21403;DHT22;10862;51.886;17.078;2024-01-27T05:35:20;5.00;24.50
21403;DHT22;10862;51.886;17.078;2024-01-27T05:37:45;4.80;1.00
21403;DHT22;10862;51.886;17.078;2024-01-27T05:40:11;4.80;1.00
21403;DHT22;10862;51.886;17.078;2024-01-27T05:42:37;4.80;1.30
21403;DHT22;10862;51.886;17.078;2024-01-27T05:45:02;4.80;12.50
21403;DHT22;10862;51.886;17.078;2024-01-27T05:47:28;4.70;18.40
21403;DHT22;10862;51.886;17.078;2024-01-27T05:49:54;4.80;1.00
21403;DHT22;10862;51.886;17.078;2024-01-27T05:52:19;4.80;1.00
21403;DHT22;10862;51.886;17.078;2024-01-27T05:54:45;4.80;14.20
21403;DHT22;10862;51.886;17.078;2024-01-27T05:57:10;4.80;23.80
21403;DHT22;10862;51.886;17.078;2024-01-27T05:59:36;4.80;75.70
21403;DHT22;10862;51.886;17.078;2024-01-27T06:02:01;4.80;91.80
21403;DHT22;10862;51.886;17.078;2024-01-27T06:04:27;4.70;99.90
21403;DHT22;10862;51.886;17.078;2024-01-27T06:06:52;4.80;99.90
21403;DHT22;10862;51.886;17.078;2024-01-27T06:09:18;4.70;99.90
21403;DHT22;10862;51.886;17.078;2024-01-27T06:11:43;4.70;99.90
21403;DHT22;10862;51.886;17.078;2024-01-27T06:14:09;4.70;99.90
21403;DHT22;10862;51.886;17.078;2024-01-27T06:16:35;4.80;99.90
21403;DHT22;10862;51.886;17.078;2024-01-27T06:19:00;4.80;15.70
21403;DHT22;10862;51.886;17.078;2024-01-27T06:21:26;4.80;39.20
21403;DHT22;10862;51.886;17.078;2024-01-27T06:23:51;4.80;1.00
21403;DHT22;10862;51.886;17.078;2024-01-27T06:26:17;4.80;99.90
21403;DHT22;10862;51.886;17.078;2024-01-27T06:28:43;4.70;99.90
21403;DHT22;10862;51.886;17.078;2024-01-27T06:31:09;4.80;45.20
21403;DHT22;10862;51.886;17.078;2024-01-27T06:33:35;4.80;32.10
21403;DHT22;10862;51.886;17.078;2024-01-27T06:36:01;4.80;1.00
21403;DHT22;10862;51.886;17.078;2024-01-27T06:38:27;4.80;85.70
21403;DHT22;10862;51.886;17.078;2024-01-27T06:40:53;4.80;92.60
21403;DHT22;10862;51.886;17.078;2024-01-27T06:43:19;4.90;99.90
21403;DHT22;10862;51.886;17.078;2024-01-27T06:45:45;4.80;33.90
21403;DHT22;10862;51.886;17.078;2024-01-27T06:48:10;4.90;1.00
21403;DHT22;10862;51.886;17.078;2024-01-27T06:50:36;4.80;83.40
21403;DHT22;10862;51.886;17.078;2024-01-27T06:53:02;4.90;3.00
21403;DHT22;10862;51.886;17.078;2024-01-27T06:55:28;4.90;1.00
21403;DHT22;10862;51.886;17.078;2024-01-27T06:57:54;4.90;80.30
21403;DHT22;10862;51.886;17.078;2024-01-27T07:00:20;4.80;36.00
21403;DHT22;10862;51.886;17.078;2024-01-27T07:02:46;4.90;90.50
21403;DHT22;10862;51.886;17.078;2024-01-27T07:05:11;5.00;33.60
21403;DHT22;10862;51.886;17.078;2024-01-27T07:07:40;4.90;43.90
21403;DHT22;10862;51.886;17.078;2024-01-27T07:10:07;4.90;99.90
21403;DHT22;10862;51.886;17.078;2024-01-27T07:12:36;4.90;99.90
21403;DHT22;10862;51.886;17.078;2024-01-27T07:15:09;5.00;99.90
21403;DHT22;10862;51.886;17.078;2024-01-27T07:17:46;5.00;99.90
21403;DHT22;10862;51.886;17.078;2024-01-27T07:20:11;4.90;99.90
21403;DHT22;10862;51.886;17.078;2024-01-27T07:22:37;4.90;99.90
21403;DHT22;10862;51.886;17.078;2024-01-27T07:25:03;5.00;99.90
21403;DHT22;10862;51.886;17.078;2024-01-27T07:27:32;5.00;99.90
21403;DHT22;10862;51.886;17.078;2024-01-27T07:29:57;5.00;99.90
21403;DHT22;10862;51.886;17.078;2024-01-27T07:32:23;5.00;99.90
21403;DHT22;10862;51.886;17.078;2024-01-27T07:34:50;5.00;99.90
21403;DHT22;10862;51.886;17.078;2024-01-27T07:37:15;5.10;99.90
21403;DHT22;10862;51.886;17.078;2024-01-27T07:39:41;5.10;99.90
21403;DHT22;10862;51.886;17.078;2024-01-27T07:42:07;5.00;99.90
21403;DHT22;10862;51.886;17.078;2024-01-27T07:44:32;5.00;99.90
21403;DHT22;10862;51.886;17.078;2024-01-27T07:46:58;5.00;99.90
21403;DHT22;10862;51.886;17.078;2024-01-27T07:49:24;5.00;99.90
21403;DHT22;10862;51.886;17.078;2024-01-27T07:51:49;4.90;99.90
21403;DHT22;10862;51.886;17.078;2024-01-27T07:54:15;5.10;99.90
21403;DHT22;10862;51.886;17.078;2024-01-27T07:56:40;5.00;1.00
21403;DHT22;10862;51.886;17.078;2024-01-27T07:59:07;5.00;1.00
21403;DHT22;10862;51.886;17.078;2024-01-27T08:01:45;5.20;99.90
21403;DHT22;10862;51.886;17.078;2024-01-27T08:04:11;5.10;99.90
21403;DHT22;10862;51.886;17.078;2024-01-27T08:06:50;5.10;1.00
21403;DHT22;10862;51.886;17.078;2024-01-27T08:09:17;5.10;1.00
21403;DHT22;10862;51.886;17.078;2024-01-27T08:11:43;5.20;1.00
21403;DHT22;10862;51.886;17.078;2024-01-27T08:14:09;5.10;1.00
21403;DHT22;10862;51.886;17.078;2024-01-27T08:16:35;5.20;1.00
21403;DHT22;10862;51.886;17.078;2024-01-27T08:19:00;5.10;1.00
21403;DHT22;10862;51.886;17.078;2024-01-27T08:21:26;5.20;1.00
21403;DHT22;10862;51.886;17.078;2024-01-27T08:23:52;5.20;1.00
21403;DHT22;10862;51.886;17.078;2024-01-27T08:26:18;5.10;1.00
21403;DHT22;10862;51.886;17.078;2024-01-27T08:28:46;5.20;1.00
21403;DHT22;10862;51.886;17.078;2024-01-27T08:31:12;5.30;1.00
21403;DHT22;10862;51.886;17.078;2024-01-27T08:33:37;5.10;1.00
21403;DHT22;10862;51.886;17.078;2024-01-27T08:36:03;5.00;1.00
21403;DHT22;10862;51.886;17.078;2024-01-27T08:38:29;5.10;18.20
21403;DHT22;10862;51.886;17.078;2024-01-27T08:40:54;5.20;1.00
21403;DHT22;10862;51.886;17.078;2024-01-27T08:43:20;5.10;99.90
21403;DHT22;10862;51.886;17.078;2024-01-27T08:45:46;5.10;99.90
21403;DHT22;10862;51.886;17.078;2024-01-27T08:48:11;5.00;99.90
21403;DHT22;10862;51.886;17.078;2024-01-27T08:50:38;5.10;99.90
21403;DHT22;10862;51.886;17.078;2024-01-27T08:53:04;5.10;99.90
21403;DHT22;10862;51.886;17.078;2024-01-27T08:55:29;5.30;92.60
21403;DHT22;10862;51.886;17.078;2024-01-27T08:57:56;5.30;1.00
21403;DHT22;10862;51.886;17.078;2024-01-27T09:00:22;5.20;99.90
21403;DHT22;10862;51.886;17.078;2024-01-27T09:02:48;5.20;99.90
21403;DHT22;10862;51.886;17.078;2024-01-27T09:05:14;5.20;99.90
21403;DHT22;10862;51.886;17.078;2024-01-27T09:07:39;5.10;46.10
21403;DHT22;10862;51.886;17.078;2024-01-27T09:10:05;5.20;99.90
21403;DHT22;10862;51.886;17.078;2024-01-27T09:12:32;5.30;99.90
21403;DHT22;10862;51.886;17.078;2024-01-27T09:14:58;5.30;24.30
21403;DHT22;10862;51.886;17.078;2024-01-27T09:17:23;5.20;73.80
21403;DHT22;10862;51.886;17.078;2024-01-27T09:19:49;5.20;99.90
21403;DHT22;10862;51.886;17.078;2024-01-27T09:22:16;5.40;99.90
21403;DHT22;10862;51.886;17.078;2024-01-27T09:24:41;5.40;99.90
21403;DHT22;10862;51.886;17.078;2024-01-27T09:27:07;5.50;99.90
21403;DHT22;10862;51.886;17.078;2024-01-27T09:29:33;5.50;1.00
21403;DHT22;10862;51.886;17.078;2024-01-27T09:31:58;5.50;1.00
21403;DHT22;10862;51.886;17.078;2024-01-27T09:34:24;5.60;1.00
21403;DHT22;10862;51.886;17.078;2024-01-27T09:36:49;5.70;1.00
21403;DHT22;10862;51.886;17.078;2024-01-27T09:39:15;5.50;1.00
21403;DHT22;10862;51.886;17.078;2024-01-27T09:41:41;5.30;99.90
21403;DHT22;10862;51.886;17.078;2024-01-27T09:44:07;5.40;99.90
21403;DHT22;10862;51.886;17.078;2024-01-27T09:46:33;5.40;52.40
21403;DHT22;10862;51.886;17.078;2024-01-27T09:48:59;5.50;1.00
21403;DHT22;10862;51.886;17.078;2024-01-27T09:51:25;5.70;1.00
21403;DHT22;10862;51.886;17.078;2024-01-27T09:53:51;5.60;1.00
21403;DHT22;10862;51.886;17.078;2024-01-27T09:56:17;5.60;1.00
21403;DHT22;10862;51.886;17.078;2024-01-27T09:58:45;5.90;1.00
21403;DHT22;10862;51.886;17.078;2024-01-27T10:01:10;5.80;1.00
21403;DHT22;10862;51.886;17.078;2024-01-27T10:03:39;5.70;1.00
21403;DHT22;10862;51.886;17.078;2024-01-27T10:06:08;5.50;1.00
21403;DHT22;10862;51.886;17.078;2024-01-27T10:08:34;5.50;1.00
21403;DHT22;10862;51.886;17.078;2024-01-27T10:11:06;5.50;1.00
21403;DHT22;10862;51.886;17.078;2024-01-27T10:13:33;5.50;1.00
21403;DHT22;10862;51.886;17.078;2024-01-27T10:15:59;5.60;1.00
21403;DHT22;10862;51.886;17.078;2024-01-27T10:18:25;5.70;1.00
21403;DHT22;10862;51.886;17.078;2024-01-27T10:20:51;5.80;1.00
21403;DHT22;10862;51.886;17.078;2024-01-27T10:23:16;5.60;1.00
21403;DHT22;10862;51.886;17.078;2024-01-27T10:25:43;5.70;1.00
21403;DHT22;10862;51.886;17.078;2024-01-27T10:28:09;5.60;1.00
21403;DHT22;10862;51.886;17.078;2024-01-27T10:30:35;5.70;1.00
21403;DHT22;10862;51.886;17.078;2024-01-27T10:33:01;5.60;1.00
21403;DHT22;10862;51.886;17.078;2024-01-27T10:35:28;5.70;1.00
21403;DHT22;10862;51.886;17.078;2024-01-27T10:37:54;5.80;1.00
21403;DHT22;10862;51.886;17.078;2024-01-27T10:40:21;5.80;1.00
21403;DHT22;10862;51.886;17.078;2024-01-27T10:43:08;5.80;1.00
21403;DHT22;10862;51.886;17.078;2024-01-27T10:45:40;5.90;1.00
21403;DHT22;10862;51.886;17.078;2024-01-27T10:48:07;5.90;1.00
21403;DHT22;10862;51.886;17.078;2024-01-27T10:50:36;5.90;1.00
21403;DHT22;10862;51.886;17.078;2024-01-27T10:53:04;6.00;1.00
21403;DHT22;10862;51.886;17.078;2024-01-27T10:55:35;6.20;99.90
21403;DHT22;10862;51.886;17.078;2024-01-27T10:58:02;6.10;99.90
21403;DHT22;10862;51.886;17.078;2024-01-27T11:00:30;6.00;1.00
21403;DHT22;10862;51.886;17.078;2024-01-27T11:03:01;6.00;1.00
21403;DHT22;10862;51.886;17.078;2024-01-27T11:05:27;6.00;1.00
21403;DHT22;10862;51.886;17.078;2024-01-27T11:07:54;6.10;1.00
21403;DHT22;10862;51.886;17.078;2024-01-27T11:10:20;6.20;1.00
21403;DHT22;10862;51.886;17.078;2024-01-27T11:12:47;6.30;1.00
21403;DHT22;10862;51.886;17.078;2024-01-27T11:15:13;6.10;99.90
21403;DHT22;10862;51.886;17.078;2024-01-27T11:17:41;6.10;1.00
21403;DHT22;10862;51.886;17.078;2024-01-27T11:20:08;6.10;1.00
21403;DHT22;10862;51.886;17.078;2024-01-27T11:22:33;6.20;1.00
21403;DHT22;10862;51.886;17.078;2024-01-27T11:27:37;6.40;99.90
21403;DHT22;10862;51.886;17.078;2024-01-27T11:30:06;6.50;99.90
21403;DHT22;10862;51.886;17.078;2024-01-27T11:32:37;6.50;99.90
21403;DHT22;10862;51.886;17.078;2024-01-27T11:35:04;6.30;99.90
21403;DHT22;10862;51.886;17.078;2024-01-27T11:37:30;6.30;99.90
21403;DHT22;10862;51.886;17.078;2024-01-27T11:40:05;6.30;99.90
21403;DHT22;10862;51.886;17.078;2024-01-27T11:42:34;6.30;1.00
21403;DHT22;10862;51.886;17.078;2024-01-27T11:45:00;6.30;99.90
21403;DHT22;10862;51.886;17.078;2024-01-27T11:47:26;6.30;99.90
21403;DHT22;10862;51.886;17.078;2024-01-27T11:49:53;6.20;99.90
21403;DHT22;10862;51.886;17.078;2024-01-27T11:52:19;6.50;99.90
21403;DHT22;10862;51.886;17.078;2024-01-27T11:54:44;6.60;1.00
21403;DHT22;10862;51.886;17.078;2024-01-27T11:57:10;6.40;99.90
21403;DHT22;10862;51.886;17.078;2024-01-27T11:59:35;6.60;99.90
21403;DHT22;10862;51.886;17.078;2024-01-27T12:02:01;6.50;57.80
21403;DHT22;10862;51.886;17.078;2024-01-27T12:04:27;6.60;3.80
21403;DHT22;10862;51.886;17.078;2024-01-27T12:06:53;6.60;56.20
21403;DHT22;10862;51.886;17.078;2024-01-27T12:09:19;6.60;1.00
21403;DHT22;10862;51.886;17.078;2024-01-27T12:11:45;6.60;1.00
21403;DHT22;10862;51.886;17.078;2024-01-27T12:14:11;6.50;1.00
21403;DHT22;10862;51.886;17.078;2024-01-27T12:16:37;6.70;1.00
21403;DHT22;10862;51.886;17.078;2024-01-27T12:19:03;6.70;1.00
21403;DHT22;10862;51.886;17.078;2024-01-27T12:21:28;6.70;1.00
21403;DHT22;10862;51.886;17.078;2024-01-27T12:23:57;6.70;1.00
21403;DHT22;10862;51.886;17.078;2024-01-27T12:26:26;6.70;1.00
21403;DHT22;10862;51.886;17.078;2024-01-27T12:28:53;6.70;99.90
21403;DHT22;10862;51.886;17.078;2024-01-27T12:31:19;6.70;99.90
21403;DHT22;10862;51.886;17.078;2024-01-27T12:33:52;6.60;99.90
21403;DHT22;10862;51.886;17.078;2024-01-27T12:36:18;6.60;99.90
21403;DHT22;10862;51.886;17.078;2024-01-27T12:41:20;6.50;99.90
21403;DHT22;10862;51.886;17.078;2024-01-27T12:43:46;6.40;99.90
21403;DHT22;10862;51.886;17.078;2024-01-27T12:46:11;6.50;99.90
21403;DHT22;10862;51.886;17.078;2024-01-27T12:48:37;6.40;99.90
21403;DHT22;10862;51.886;17.078;2024-01-27T12:51:04;6.50;99.90
21403;DHT22;10862;51.886;17.078;2024-01-27T12:53:30;6.50;99.90
21403;DHT22;10862;51.886;17.078;2024-01-27T12:55:55;6.60;99.90
21403;DHT22;10862;51.886;17.078;2024-01-27T12:58:21;6.60;99.90
21403;DHT22;10862;51.886;17.078;2024-01-27T13:00:47;6.60;99.90
21403;DHT22;10862;51.886;17.078;2024-01-27T13:03:13;6.60;99.90
21403;DHT22;10862;51.886;17.078;2024-01-27T13:05:39;6.60;99.90
21403;DHT22;10862;51.886;17.078;2024-01-27T13:08:05;6.70;99.90
21403;DHT22;10862;51.886;17.078;2024-01-27T13:10:30;6.70;99.90
21403;DHT22;10862;51.886;17.078;2024-01-27T13:12:56;6.80;99.90
21403;DHT22;10862;51.886;17.078;2024-01-27T13:15:24;6.70;96.40
21403;DHT22;10862;51.886;17.078;2024-01-27T13:17:50;6.80;78.40
21403;DHT22;10862;51.886;17.078;2024-01-27T13:20:16;7.00;72.80
21403;DHT22;10862;51.886;17.078;2024-01-27T13:22:43;6.80;23.80
21403;DHT22;10862;51.886;17.078;2024-01-27T13:25:08;6.80;40.10
21403;DHT22;10862;51.886;17.078;2024-01-27T13:27:34;6.70;76.40
21403;DHT22;10862;51.886;17.078;2024-01-27T13:30:00;6.70;94.00
21403;DHT22;10862;51.886;17.078;2024-01-27T13:32:26;6.70;92.60
21403;DHT22;10862;51.886;17.078;2024-01-27T13:34:52;6.70;99.90
21403;DHT22;10862;51.886;17.078;2024-01-27T13:37:18;6.60;99.90
21403;DHT22;10862;51.886;17.078;2024-01-27T13:39:44;6.70;99.90
21403;DHT22;10862;51.886;17.078;2024-01-27T13:42:11;6.60;99.90
21403;DHT22;10862;51.886;17.078;2024-01-27T13:44:36;6.80;99.90
21403;DHT22;10862;51.886;17.078;2024-01-27T13:47:03;6.70;99.90
21403;DHT22;10862;51.886;17.078;2024-01-27T13:49:33;6.70;99.90
21403;DHT22;10862;51.886;17.078;2024-01-27T13:51:59;6.60;99.90
21403;DHT22;10862;51.886;17.078;2024-01-27T13:54:24;6.60;99.90
21403;DHT22;10862;51.886;17.078;2024-01-27T13:56:50;6.50;99.90
21403;DHT22;10862;51.886;17.078;2024-01-27T13:59:16;6.70;99.90
21403;DHT22;10862;51.886;17.078;2024-01-27T14:01:42;6.70;99.90
21403;DHT22;10862;51.886;17.078;2024-01-27T14:04:07;6.60;99.90
21403;DHT22;10862;51.886;17.078;2024-01-27T14:06:34;6.80;99.90
21403;DHT22;10862;51.886;17.078;2024-01-27T14:09:00;6.70;99.90
21403;DHT22;10862;51.886;17.078;2024-01-27T14:11:29;6.70;99.90
21403;DHT22;10862;51.886;17.078;2024-01-27T14:13:55;6.60;99.90
21403;DHT22;10862;51.886;17.078;2024-01-27T14:16:20;6.50;99.90
21403;DHT22;10862;51.886;17.078;2024-01-27T14:18:47;6.50;99.90
21403;DHT22;10862;51.886;17.078;2024-01-27T14:21:13;6.50;1.00
21403;DHT22;10862;51.886;17.078;2024-01-27T14:23:39;6.40;1.00
21403;DHT22;10862;51.886;17.078;2024-01-27T14:26:04;6.40;1.00
21403;DHT22;10862;51.886;17.078;2024-01-27T14:28:33;6.30;1.00
21403;DHT22;10862;51.886;17.078;2024-01-27T14:30:59;6.40;1.00
21403;DHT22;10862;51.886;17.078;2024-01-27T14:33:24;6.40;1.00
21403;DHT22;10862;51.886;17.078;2024-01-27T14:35:50;6.30;1.00
21403;DHT22;10862;51.886;17.078;2024-01-27T14:38:16;6.30;1.00
21403;DHT22;10862;51.886;17.078;2024-01-27T14:40:41;6.30;1.00
21403;DHT22;10862;51.886;17.078;2024-01-27T14:43:07;6.30;1.00
21403;DHT22;10862;51.886;17.078;2024-01-27T14:45:37;6.30;1.00
21403;DHT22;10862;51.886;17.078;2024-01-27T14:48:03;6.20;1.00
21403;DHT22;10862;51.886;17.078;2024-01-27T14:50:29;6.20;1.00
21403;DHT22;10862;51.886;17.078;2024-01-27T14:52:55;6.20;1.00
21403;DHT22;10862;51.886;17.078;2024-01-27T14:55:21;6.20;1.00
21403;DHT22;10862;51.886;17.078;2024-01-27T14:57:46;6.20;1.00
21403;DHT22;10862;51.886;17.078;2024-01-27T15:00:14;6.10;1.00
21403;DHT22;10862;51.886;17.078;2024-01-27T15:02:41;6.10;1.30
21403;DHT22;10862;51.886;17.078;2024-01-27T15:05:09;6.00;99.90
21403;DHT22;10862;51.886;17.078;2024-01-27T15:07:34;5.90;99.90
21403;DHT22;10862;51.886;17.078;2024-01-27T15:10:00;5.90;99.90
21403;DHT22;10862;51.886;17.078;2024-01-27T15:12:26;5.80;99.90
21403;DHT22;10862;51.886;17.078;2024-01-27T15:14:52;5.80;1.00
21403;DHT22;10862;51.886;17.078;2024-01-27T15:17:18;5.80;1.00
21403;DHT22;10862;51.886;17.078;2024-01-27T15:19:44;5.80;1.00
21403;DHT22;10862;51.886;17.078;2024-01-27T15:22:10;5.80;1.00
21403;DHT22;10862;51.886;17.078;2024-01-27T15:24:36;5.80;1.00
21403;DHT22;10862;51.886;17.078;2024-01-27T15:27:03;5.80;1.00
21403;DHT22;10862;51.886;17.078;2024-01-27T15:29:29;5.80;1.00
21403;DHT22;10862;51.886;17.078;2024-01-27T15:31:55;5.70;1.00
21403;DHT22;10862;51.886;17.078;2024-01-27T15:34:21;5.70;30.30
21403;DHT22;10862;51.886;17.078;2024-01-27T15:36:48;5.70;99.90